sensor_id;sensor_type;location;lat;lon;timestamp;P1;durP1;ratioP1;P2;durP2;ratioP2
31990;SDS011;18508;49.386;8.370;2023-02-15T00:01:32;187.80;;;36.20;;
31990;SDS011;18508;49.386;8.370;2023-02-15T00:04:02;144.00;;;35.53;;
31990;SDS011;18508;49.386;8.370;2023-02-15T00:06:31;147.75;;;32.78;;
31990;SDS011;18508;49.386;8.370;2023-02-15T00:08:59;141.00;;;34.95;;
31990;SDS011;18508;49.386;8.370;2023-02-15T00:11:28;170.85;;;35.67;;
31990;SDS011;18508;49.386;8.370;2023-02-15T00:14:16;144.57;;;33.00;;
31990;SDS011;18508;49.386;8.370;2023-02-15T00:16:46;152.88;;;35.22;;
31990;SDS011;18508;49.386;8.370;2023-02-15T00:19:17;174.63;;;35.83;;
31990;SDS011;18508;49.386;8.370;2023-02-15T00:21:47;170.73;;;33.97;;
31990;SDS011;18508;49.386;8.370;2023-02-15T00:24:17;153.57;;;33.72;;
31990;SDS011;18508;49.386;8.370;2023-02-15T00:26:46;147.77;;;33.63;;
31990;SDS011;18508;49.386;8.370;2023-02-15T00:29:16;151.48;;;33.35;;
31990;SDS011;18508;49.386;8.370;2023-02-15T00:31:46;135.68;;;31.83;;
31990;SDS011;18508;49.386;8.370;2023-02-15T00:34:16;143.52;;;32.33;;
31990;SDS011;18508;49.386;8.370;2023-02-15T00:36:48;145.30;;;32.25;;
31990;SDS011;18508;49.386;8.370;2023-02-15T00:39:17;126.90;;;31.38;;
31990;SDS011;18508;49.386;8.370;2023-02-15T00:41:46;134.50;;;31.60;;
31990;SDS011;18508;49.386;8.370;2023-02-15T00:44:15;139.55;;;33.22;;
31990;SDS011;18508;49.386;8.370;2023-02-15T00:46:44;132.73;;;33.13;;
31990;SDS011;18508;49.386;8.370;2023-02-15T00:49:12;123.80;;;31.70;;
31990;SDS011;18508;49.386;8.370;2023-02-15T00:51:42;130.30;;;31.33;;
31990;SDS011;18508;49.386;8.370;2023-02-15T00:54:12;119.28;;;31.92;;
31990;SDS011;18508;49.386;8.370;2023-02-15T00:56:41;121.78;;;30.83;;
31990;SDS011;18508;49.386;8.370;2023-02-15T00:59:12;114.50;;;28.90;;
31990;SDS011;18508;49.386;8.370;2023-02-15T01:01:40;121.55;;;29.50;;
31990;SDS011;18508;49.386;8.370;2023-02-15T01:04:09;116.78;;;31.27;;
31990;SDS011;18508;49.386;8.370;2023-02-15T01:06:38;109.57;;;28.38;;
31990;SDS011;18508;49.386;8.370;2023-02-15T01:09:09;106.78;;;28.02;;
31990;SDS011;18508;49.386;8.370;2023-02-15T01:11:39;118.10;;;28.57;;
31990;SDS011;18508;49.386;8.370;2023-02-15T01:14:08;112.65;;;27.52;;
31990;SDS011;18508;49.386;8.370;2023-02-15T01:16:37;104.68;;;25.48;;
31990;SDS011;18508;49.386;8.370;2023-02-15T01:19:07;106.25;;;28.58;;
31990;SDS011;18508;49.386;8.370;2023-02-15T01:21:36;104.80;;;28.15;;
31990;SDS011;18508;49.386;8.370;2023-02-15T01:24:11;108.57;;;27.52;;
31990;SDS011;18508;49.386;8.370;2023-02-15T01:26:40;109.57;;;28.30;;
31990;SDS011;18508;49.386;8.370;2023-02-15T01:29:10;103.22;;;27.58;;
31990;SDS011;18508;49.386;8.370;2023-02-15T01:31:39;106.43;;;27.10;;
31990;SDS011;18508;49.386;8.370;2023-02-15T01:34:08;109.63;;;28.70;;
31990;SDS011;18508;49.386;8.370;2023-02-15T01:36:36;106.70;;;26.80;;
31990;SDS011;18508;49.386;8.370;2023-02-15T01:39:05;99.90;;;27.77;;
31990;SDS011;18508;49.386;8.370;2023-02-15T01:41:38;92.97;;;26.50;;
31990;SDS011;18508;49.386;8.370;2023-02-15T01:47:07;84.68;;;26.23;;
31990;SDS011;18508;49.386;8.370;2023-02-15T01:49:38;88.65;;;25.20;;
31990;SDS011;18508;49.386;8.370;2023-02-15T01:52:07;88.85;;;25.20;;
31990;SDS011;18508;49.386;8.370;2023-02-15T01:54:38;95.00;;;25.10;;
31990;SDS011;18508;49.386;8.370;2023-02-15T01:57:10;89.45;;;25.40;;
31990;SDS011;18508;49.386;8.370;2023-02-15T01:59:44;92.32;;;25.92;;
31990;SDS011;18508;49.386;8.370;2023-02-15T02:02:18;90.35;;;26.00;;
31990;SDS011;18508;49.386;8.370;2023-02-15T02:04:51;94.43;;;25.40;;
31990;SDS011;18508;49.386;8.370;2023-02-15T02:07:22;86.00;;;23.23;;
31990;SDS011;18508;49.386;8.370;2023-02-15T02:09:54;80.75;;;24.05;;
31990;SDS011;18508;49.386;8.370;2023-02-15T02:12:25;75.93;;;24.65;;
31990;SDS011;18508;49.386;8.370;2023-02-15T02:14:54;84.47;;;25.23;;
31990;SDS011;18508;49.386;8.370;2023-02-15T02:17:26;72.53;;;23.95;;
31990;SDS011;18508;49.386;8.370;2023-02-15T02:20:24;83.43;;;24.25;;
31990;SDS011;18508;49.386;8.370;2023-02-15T02:29:30;70.15;;;21.13;;
31990;SDS011;18508;49.386;8.370;2023-02-15T02:32:27;65.95;;;20.30;;
31990;SDS011;18508;49.386;8.370;2023-02-15T02:35:16;75.03;;;21.08;;
31990;SDS011;18508;49.386;8.370;2023-02-15T02:37:51;61.28;;;20.48;;
31990;SDS011;18508;49.386;8.370;2023-02-15T02:40:30;61.65;;;20.73;;
31990;SDS011;18508;49.386;8.370;2023-02-15T02:43:08;68.28;;;21.83;;
31990;SDS011;18508;49.386;8.370;2023-02-15T02:45:43;66.78;;;21.58;;
31990;SDS011;18508;49.386;8.370;2023-02-15T02:48:16;59.22;;;21.40;;
31990;SDS011;18508;49.386;8.370;2023-02-15T02:50:52;70.95;;;22.35;;
31990;SDS011;18508;49.386;8.370;2023-02-15T02:53:20;72.20;;;21.52;;
31990;SDS011;18508;49.386;8.370;2023-02-15T02:55:52;68.75;;;22.45;;
31990;SDS011;18508;49.386;8.370;2023-02-15T02:58:23;69.97;;;21.92;;
31990;SDS011;18508;49.386;8.370;2023-02-15T03:00:57;65.88;;;21.70;;
31990;SDS011;18508;49.386;8.370;2023-02-15T03:03:32;71.80;;;22.10;;
31990;SDS011;18508;49.386;8.370;2023-02-15T03:06:07;70.20;;;22.75;;
31990;SDS011;18508;49.386;8.370;2023-02-15T03:08:38;66.97;;;21.85;;
31990;SDS011;18508;49.386;8.370;2023-02-15T03:11:12;69.20;;;21.83;;
31990;SDS011;18508;49.386;8.370;2023-02-15T03:13:40;66.47;;;22.10;;
31990;SDS011;18508;49.386;8.370;2023-02-15T03:16:10;63.65;;;21.65;;
31990;SDS011;18508;49.386;8.370;2023-02-15T03:18:54;65.53;;;21.10;;
31990;SDS011;18508;49.386;8.370;2023-02-15T03:21:30;69.35;;;22.75;;
31990;SDS011;18508;49.386;8.370;2023-02-15T03:24:03;65.57;;;21.20;;
31990;SDS011;18508;49.386;8.370;2023-02-15T03:26:37;66.82;;;23.15;;
31990;SDS011;18508;49.386;8.370;2023-02-15T03:29:07;62.03;;;20.90;;
31990;SDS011;18508;49.386;8.370;2023-02-15T03:31:38;65.43;;;22.02;;
31990;SDS011;18508;49.386;8.370;2023-02-15T03:34:11;58.22;;;21.05;;
31990;SDS011;18508;49.386;8.370;2023-02-15T03:36:43;62.78;;;21.25;;
31990;SDS011;18508;49.386;8.370;2023-02-15T03:39:17;59.53;;;20.95;;
31990;SDS011;18508;49.386;8.370;2023-02-15T03:41:55;62.50;;;21.30;;
31990;SDS011;18508;49.386;8.370;2023-02-15T03:44:29;60.95;;;20.15;;
31990;SDS011;18508;49.386;8.370;2023-02-15T03:47:00;67.07;;;21.33;;
31990;SDS011;18508;49.386;8.370;2023-02-15T03:49:36;64.15;;;21.10;;
31990;SDS011;18508;49.386;8.370;2023-02-15T03:52:10;65.50;;;20.95;;
31990;SDS011;18508;49.386;8.370;2023-02-15T03:54:41;61.10;;;21.27;;
31990;SDS011;18508;49.386;8.370;2023-02-15T03:57:10;63.15;;;22.00;;
31990;SDS011;18508;49.386;8.370;2023-02-15T03:59:58;59.83;;;21.30;;
31990;SDS011;18508;49.386;8.370;2023-02-15T04:02:48;64.75;;;21.00;;
31990;SDS011;18508;49.386;8.370;2023-02-15T04:05:34;60.63;;;20.60;;
31990;SDS011;18508;49.386;8.370;2023-02-15T04:08:04;66.78;;;22.13;;
31990;SDS011;18508;49.386;8.370;2023-02-15T04:10:35;64.97;;;20.60;;
31990;SDS011;18508;49.386;8.370;2023-02-15T04:13:22;63.33;;;21.25;;
31990;SDS011;18508;49.386;8.370;2023-02-15T04:15:53;53.00;;;20.35;;
31990;SDS011;18508;49.386;8.370;2023-02-15T04:18:31;52.63;;;19.55;;
31990;SDS011;18508;49.386;8.370;2023-02-15T04:21:19;48.60;;;18.25;;
31990;SDS011;18508;49.386;8.370;2023-02-15T04:24:07;55.10;;;19.67;;
31990;SDS011;18508;49.386;8.370;2023-02-15T04:26:53;51.55;;;19.05;;
31990;SDS011;18508;49.386;8.370;2023-02-15T04:29:23;52.10;;;18.95;;
31990;SDS011;18508;49.386;8.370;2023-02-15T04:31:53;57.63;;;20.20;;
31990;SDS011;18508;49.386;8.370;2023-02-15T04:34:23;51.22;;;19.10;;
31990;SDS011;18508;49.386;8.370;2023-02-15T04:36:51;56.75;;;20.48;;
31990;SDS011;18508;49.386;8.370;2023-02-15T04:39:21;47.28;;;18.65;;
31990;SDS011;18508;49.386;8.370;2023-02-15T04:41:51;49.50;;;18.50;;
31990;SDS011;18508;49.386;8.370;2023-02-15T04:44:19;45.85;;;17.30;;
31990;SDS011;18508;49.386;8.370;2023-02-15T04:46:47;48.88;;;18.83;;
31990;SDS011;18508;49.386;8.370;2023-02-15T04:49:17;56.67;;;18.92;;
31990;SDS011;18508;49.386;8.370;2023-02-15T04:51:46;55.67;;;18.95;;
31990;SDS011;18508;49.386;8.370;2023-02-15T04:54:16;50.80;;;19.02;;
31990;SDS011;18508;49.386;8.370;2023-02-15T04:56:47;51.90;;;18.45;;
31990;SDS011;18508;49.386;8.370;2023-02-15T04:59:15;50.47;;;18.83;;
31990;SDS011;18508;49.386;8.370;2023-02-15T05:01:43;53.60;;;18.98;;
31990;SDS011;18508;49.386;8.370;2023-02-15T05:04:12;54.13;;;18.92;;
31990;SDS011;18508;49.386;8.370;2023-02-15T05:06:41;52.78;;;18.27;;
31990;SDS011;18508;49.386;8.370;2023-02-15T05:09:10;51.95;;;19.30;;
31990;SDS011;18508;49.386;8.370;2023-02-15T05:11:40;50.45;;;18.90;;
31990;SDS011;18508;49.386;8.370;2023-02-15T05:14:10;52.58;;;18.60;;
31990;SDS011;18508;49.386;8.370;2023-02-15T05:16:40;52.13;;;18.52;;
31990;SDS011;18508;49.386;8.370;2023-02-15T05:19:09;55.90;;;19.65;;
31990;SDS011;18508;49.386;8.370;2023-02-15T05:21:37;53.72;;;19.88;;
31990;SDS011;18508;49.386;8.370;2023-02-15T05:24:06;56.70;;;21.13;;
31990;SDS011;18508;49.386;8.370;2023-02-15T05:26:48;54.60;;;19.80;;
31990;SDS011;18508;49.386;8.370;2023-02-15T05:29:36;60.55;;;23.13;;
31990;SDS011;18508;49.386;8.370;2023-02-15T05:32:04;56.83;;;22.30;;
31990;SDS011;18508;49.386;8.370;2023-02-15T05:34:35;55.25;;;21.33;;
31990;SDS011;18508;49.386;8.370;2023-02-15T05:37:03;59.05;;;20.70;;
31990;SDS011;18508;49.386;8.370;2023-02-15T05:39:31;56.40;;;19.55;;
31990;SDS011;18508;49.386;8.370;2023-02-15T05:42:01;53.00;;;19.42;;
31990;SDS011;18508;49.386;8.370;2023-02-15T05:44:31;51.05;;;19.17;;
31990;SDS011;18508;49.386;8.370;2023-02-15T05:47:01;55.55;;;21.00;;
31990;SDS011;18508;49.386;8.370;2023-02-15T05:49:30;53.55;;;18.77;;
31990;SDS011;18508;49.386;8.370;2023-02-15T05:51:59;59.35;;;19.85;;
31990;SDS011;18508;49.386;8.370;2023-02-15T05:54:28;50.10;;;19.08;;
31990;SDS011;18508;49.386;8.370;2023-02-15T05:56:57;53.60;;;18.42;;
31990;SDS011;18508;49.386;8.370;2023-02-15T05:59:25;45.50;;;17.92;;
31990;SDS011;18508;49.386;8.370;2023-02-15T06:01:56;47.72;;;19.00;;
31990;SDS011;18508;49.386;8.370;2023-02-15T06:04:26;49.05;;;17.55;;
31990;SDS011;18508;49.386;8.370;2023-02-15T06:06:55;47.45;;;17.05;;
31990;SDS011;18508;49.386;8.370;2023-02-15T06:09:23;46.53;;;17.08;;
31990;SDS011;18508;49.386;8.370;2023-02-15T06:11:52;45.28;;;17.80;;
31990;SDS011;18508;49.386;8.370;2023-02-15T06:14:21;47.70;;;16.90;;
31990;SDS011;18508;49.386;8.370;2023-02-15T06:16:50;43.72;;;17.08;;
31990;SDS011;18508;49.386;8.370;2023-02-15T06:19:18;44.72;;;16.67;;
31990;SDS011;18508;49.386;8.370;2023-02-15T06:21:50;45.42;;;17.02;;
31990;SDS011;18508;49.386;8.370;2023-02-15T06:24:19;52.53;;;17.83;;
31990;SDS011;18508;49.386;8.370;2023-02-15T06:26:49;49.00;;;17.60;;
31990;SDS011;18508;49.386;8.370;2023-02-15T06:29:17;49.65;;;18.95;;
31990;SDS011;18508;49.386;8.370;2023-02-15T06:31:46;51.88;;;19.10;;
31990;SDS011;18508;49.386;8.370;2023-02-15T06:34:14;45.30;;;19.00;;
31990;SDS011;18508;49.386;8.370;2023-02-15T06:36:46;47.22;;;18.13;;
31990;SDS011;18508;49.386;8.370;2023-02-15T06:39:16;54.67;;;18.30;;
31990;SDS011;18508;49.386;8.370;2023-02-15T06:41:44;48.45;;;17.90;;
31990;SDS011;18508;49.386;8.370;2023-02-15T06:44:13;49.83;;;18.23;;
31990;SDS011;18508;49.386;8.370;2023-02-15T06:46:42;50.83;;;16.77;;
31990;SDS011;18508;49.386;8.370;2023-02-15T06:49:10;45.65;;;17.67;;
31990;SDS011;18508;49.386;8.370;2023-02-15T06:51:39;44.65;;;16.63;;
31990;SDS011;18508;49.386;8.370;2023-02-15T06:54:08;46.90;;;16.60;;
31990;SDS011;18508;49.386;8.370;2023-02-15T06:56:39;45.85;;;16.40;;
31990;SDS011;18508;49.386;8.370;2023-02-15T06:59:09;46.63;;;17.73;;
31990;SDS011;18508;49.386;8.370;2023-02-15T07:01:39;41.00;;;15.55;;
31990;SDS011;18508;49.386;8.370;2023-02-15T07:04:07;43.72;;;16.02;;
31990;SDS011;18508;49.386;8.370;2023-02-15T07:06:37;42.40;;;16.02;;
31990;SDS011;18508;49.386;8.370;2023-02-15T07:09:06;47.83;;;16.50;;
31990;SDS011;18508;49.386;8.370;2023-02-15T07:11:35;47.50;;;17.67;;
31990;SDS011;18508;49.386;8.370;2023-02-15T07:14:23;46.63;;;16.35;;
31990;SDS011;18508;49.386;8.370;2023-02-15T07:16:54;45.97;;;17.08;;
31990;SDS011;18508;49.386;8.370;2023-02-15T07:19:22;43.65;;;16.45;;
31990;SDS011;18508;49.386;8.370;2023-02-15T07:21:51;45.83;;;18.17;;
31990;SDS011;18508;49.386;8.370;2023-02-15T07:24:19;51.28;;;19.90;;
31990;SDS011;18508;49.386;8.370;2023-02-15T07:26:48;54.70;;;20.70;;
31990;SDS011;18508;49.386;8.370;2023-02-15T07:29:19;40.63;;;15.82;;
31990;SDS011;18508;49.386;8.370;2023-02-15T07:31:51;41.15;;;16.98;;
31990;SDS011;18508;49.386;8.370;2023-02-15T07:34:20;47.30;;;18.90;;
31990;SDS011;18508;49.386;8.370;2023-02-15T07:36:50;45.83;;;19.00;;
31990;SDS011;18508;49.386;8.370;2023-02-15T07:39:18;46.20;;;18.40;;
31990;SDS011;18508;49.386;8.370;2023-02-15T07:41:47;43.33;;;18.30;;
31990;SDS011;18508;49.386;8.370;2023-02-15T07:44:15;47.85;;;16.70;;
31990;SDS011;18508;49.386;8.370;2023-02-15T07:46:46;43.38;;;17.08;;
31990;SDS011;18508;49.386;8.370;2023-02-15T07:49:17;46.45;;;18.00;;
31990;SDS011;18508;49.386;8.370;2023-02-15T07:51:46;42.28;;;18.02;;
31990;SDS011;18508;49.386;8.370;2023-02-15T07:54:15;47.75;;;18.27;;
31990;SDS011;18508;49.386;8.370;2023-02-15T07:56:43;41.65;;;16.48;;
31990;SDS011;18508;49.386;8.370;2023-02-15T07:59:12;44.28;;;16.67;;
31990;SDS011;18508;49.386;8.370;2023-02-15T08:01:41;42.78;;;17.73;;
31990;SDS011;18508;49.386;8.370;2023-02-15T08:04:09;41.55;;;16.90;;
31990;SDS011;18508;49.386;8.370;2023-02-15T08:06:40;51.45;;;19.75;;
31990;SDS011;18508;49.386;8.370;2023-02-15T08:09:08;49.15;;;19.13;;
31990;SDS011;18508;49.386;8.370;2023-02-15T08:11:38;43.40;;;16.95;;
31990;SDS011;18508;49.386;8.370;2023-02-15T08:14:08;43.63;;;17.13;;
31990;SDS011;18508;49.386;8.370;2023-02-15T08:16:38;42.83;;;16.40;;
31990;SDS011;18508;49.386;8.370;2023-02-15T08:19:08;40.20;;;15.45;;
31990;SDS011;18508;49.386;8.370;2023-02-15T08:21:43;42.28;;;17.05;;
31990;SDS011;18508;49.386;8.370;2023-02-15T08:24:14;42.22;;;18.30;;
31990;SDS011;18508;49.386;8.370;2023-02-15T08:26:44;67.85;;;21.52;;
31990;SDS011;18508;49.386;8.370;2023-02-15T08:29:14;85.40;;;27.83;;
31990;SDS011;18508;49.386;8.370;2023-02-15T08:31:44;121.68;;;37.67;;
31990;SDS011;18508;49.386;8.370;2023-02-15T08:34:15;59.55;;;22.85;;
31990;SDS011;18508;49.386;8.370;2023-02-15T08:36:48;44.50;;;18.52;;
31990;SDS011;18508;49.386;8.370;2023-02-15T08:39:17;43.97;;;17.38;;
31990;SDS011;18508;49.386;8.370;2023-02-15T08:41:46;41.97;;;17.30;;
31990;SDS011;18508;49.386;8.370;2023-02-15T08:44:17;44.88;;;16.73;;
31990;SDS011;18508;49.386;8.370;2023-02-15T08:46:47;39.15;;;17.17;;
31990;SDS011;18508;49.386;8.370;2023-02-15T08:49:19;40.78;;;18.65;;
31990;SDS011;18508;49.386;8.370;2023-02-15T08:51:50;44.78;;;17.65;;
31990;SDS011;18508;49.386;8.370;2023-02-15T08:54:19;37.72;;;16.13;;
31990;SDS011;18508;49.386;8.370;2023-02-15T08:56:49;38.90;;;15.95;;
31990;SDS011;18508;49.386;8.370;2023-02-15T08:59:21;40.58;;;17.13;;
31990;SDS011;18508;49.386;8.370;2023-02-15T09:01:51;38.10;;;15.52;;
31990;SDS011;18508;49.386;8.370;2023-02-15T09:04:22;42.05;;;15.85;;
31990;SDS011;18508;49.386;8.370;2023-02-15T09:06:55;39.47;;;17.25;;
31990;SDS011;18508;49.386;8.370;2023-02-15T09:09:23;43.97;;;17.80;;
31990;SDS011;18508;49.386;8.370;2023-02-15T09:11:52;40.78;;;16.38;;
31990;SDS011;18508;49.386;8.370;2023-02-15T09:14:25;35.83;;;15.25;;
31990;SDS011;18508;49.386;8.370;2023-02-15T09:16:54;41.15;;;16.63;;
31990;SDS011;18508;49.386;8.370;2023-02-15T09:19:23;43.75;;;15.68;;
31990;SDS011;18508;49.386;8.370;2023-02-15T09:21:52;35.13;;;15.40;;
31990;SDS011;18508;49.386;8.370;2023-02-15T09:24:24;37.28;;;15.30;;
31990;SDS011;18508;49.386;8.370;2023-02-15T09:26:52;36.85;;;16.60;;
31990;SDS011;18508;49.386;8.370;2023-02-15T09:29:20;36.92;;;15.80;;
31990;SDS011;18508;49.386;8.370;2023-02-15T09:31:49;43.63;;;16.85;;
31990;SDS011;18508;49.386;8.370;2023-02-15T09:34:22;46.45;;;17.80;;
31990;SDS011;18508;49.386;8.370;2023-02-15T09:36:51;43.60;;;16.55;;
31990;SDS011;18508;49.386;8.370;2023-02-15T09:39:20;37.55;;;15.38;;
31990;SDS011;18508;49.386;8.370;2023-02-15T09:42:14;39.80;;;16.38;;
31990;SDS011;18508;49.386;8.370;2023-02-15T09:47:52;41.42;;;17.40;;
31990;SDS011;18508;49.386;8.370;2023-02-15T09:50:32;44.17;;;16.63;;
31990;SDS011;18508;49.386;8.370;2023-02-15T09:53:19;44.13;;;16.52;;
31990;SDS011;18508;49.386;8.370;2023-02-15T09:56:13;41.38;;;16.95;;
31990;SDS011;18508;49.386;8.370;2023-02-15T09:58:49;45.45;;;17.67;;
31990;SDS011;18508;49.386;8.370;2023-02-15T10:01:28;45.53;;;17.55;;
31990;SDS011;18508;49.386;8.370;2023-02-15T10:04:09;43.97;;;17.27;;
31990;SDS011;18508;49.386;8.370;2023-02-15T10:06:55;43.50;;;17.83;;
31990;SDS011;18508;49.386;8.370;2023-02-15T10:09:40;47.70;;;18.80;;
31990;SDS011;18508;49.386;8.370;2023-02-15T10:12:25;52.10;;;20.80;;
31990;SDS011;18508;49.386;8.370;2023-02-15T10:21:09;52.53;;;19.60;;
31990;SDS011;18508;49.386;8.370;2023-02-15T10:23:56;52.00;;;18.88;;
31990;SDS011;18508;49.386;8.370;2023-02-15T10:26:43;58.25;;;18.98;;
31990;SDS011;18508;49.386;8.370;2023-02-15T10:29:17;60.53;;;20.67;;
31990;SDS011;18508;49.386;8.370;2023-02-15T10:32:02;61.08;;;21.42;;
31990;SDS011;18508;49.386;8.370;2023-02-15T10:34:43;55.65;;;21.50;;
31990;SDS011;18508;49.386;8.370;2023-02-15T10:40:19;57.25;;;21.27;;
31990;SDS011;18508;49.386;8.370;2023-02-15T10:43:00;60.20;;;20.63;;
31990;SDS011;18508;49.386;8.370;2023-02-15T10:45:40;53.15;;;21.02;;
31990;SDS011;18508;49.386;8.370;2023-02-15T10:48:28;57.95;;;22.00;;
31990;SDS011;18508;49.386;8.370;2023-02-15T10:51:18;54.47;;;20.70;;
31990;SDS011;18508;49.386;8.370;2023-02-15T10:54:00;60.22;;;21.15;;
31990;SDS011;18508;49.386;8.370;2023-02-15T10:56:36;55.65;;;20.90;;
31990;SDS011;18508;49.386;8.370;2023-02-15T10:59:14;53.42;;;19.83;;
31990;SDS011;18508;49.386;8.370;2023-02-15T11:01:53;55.15;;;21.08;;
31990;SDS011;18508;49.386;8.370;2023-02-15T11:04:34;60.67;;;21.13;;
31990;SDS011;18508;49.386;8.370;2023-02-15T11:07:14;60.33;;;21.77;;
31990;SDS011;18508;49.386;8.370;2023-02-15T11:09:48;54.35;;;22.55;;
31990;SDS011;18508;49.386;8.370;2023-02-15T11:12:22;60.00;;;22.27;;
31990;SDS011;18508;49.386;8.370;2023-02-15T11:14:53;71.18;;;24.17;;
31990;SDS011;18508;49.386;8.370;2023-02-15T11:17:28;59.20;;;23.35;;
31990;SDS011;18508;49.386;8.370;2023-02-15T11:20:04;59.58;;;22.67;;
31990;SDS011;18508;49.386;8.370;2023-02-15T11:22:44;61.05;;;22.50;;
31990;SDS011;18508;49.386;8.370;2023-02-15T11:25:18;60.35;;;22.25;;
31990;SDS011;18508;49.386;8.370;2023-02-15T11:27:51;60.20;;;23.17;;
31990;SDS011;18508;49.386;8.370;2023-02-15T11:30:26;59.38;;;22.50;;
31990;SDS011;18508;49.386;8.370;2023-02-15T11:33:13;54.95;;;22.85;;
31990;SDS011;18508;49.386;8.370;2023-02-15T11:35:47;62.10;;;22.08;;
31990;SDS011;18508;49.386;8.370;2023-02-15T11:38:20;57.72;;;21.27;;
31990;SDS011;18508;49.386;8.370;2023-02-15T11:40:53;57.78;;;21.85;;
31990;SDS011;18508;49.386;8.370;2023-02-15T11:43:28;60.90;;;23.67;;
31990;SDS011;18508;49.386;8.370;2023-02-15T11:46:03;65.20;;;23.80;;
31990;SDS011;18508;49.386;8.370;2023-02-15T11:48:33;59.20;;;22.88;;
31990;SDS011;18508;49.386;8.370;2023-02-15T11:51:02;62.63;;;23.58;;
31990;SDS011;18508;49.386;8.370;2023-02-15T11:53:34;57.13;;;23.45;;
31990;SDS011;18508;49.386;8.370;2023-02-15T11:56:11;62.28;;;22.48;;
31990;SDS011;18508;49.386;8.370;2023-02-15T11:58:42;69.57;;;25.38;;
31990;SDS011;18508;49.386;8.370;2023-02-15T12:01:18;59.30;;;23.02;;
31990;SDS011;18508;49.386;8.370;2023-02-15T12:03:53;58.85;;;23.02;;
31990;SDS011;18508;49.386;8.370;2023-02-15T12:06:27;64.38;;;24.55;;
31990;SDS011;18508;49.386;8.370;2023-02-15T12:09:02;65.13;;;22.30;;
31990;SDS011;18508;49.386;8.370;2023-02-15T12:11:35;69.55;;;24.02;;
31990;SDS011;18508;49.386;8.370;2023-02-15T12:14:06;63.00;;;23.83;;
31990;SDS011;18508;49.386;8.370;2023-02-15T12:16:45;63.85;;;24.45;;
31990;SDS011;18508;49.386;8.370;2023-02-15T12:19:21;60.90;;;22.30;;
31990;SDS011;18508;49.386;8.370;2023-02-15T12:21:56;57.58;;;21.52;;
31990;SDS011;18508;49.386;8.370;2023-02-15T12:27:17;59.70;;;23.27;;
31990;SDS011;18508;49.386;8.370;2023-02-15T12:29:49;60.42;;;23.77;;
31990;SDS011;18508;49.386;8.370;2023-02-15T12:32:22;64.05;;;23.60;;
31990;SDS011;18508;49.386;8.370;2023-02-15T12:34:54;65.00;;;25.90;;
31990;SDS011;18508;49.386;8.370;2023-02-15T12:37:28;69.88;;;24.90;;
31990;SDS011;18508;49.386;8.370;2023-02-15T12:42:46;63.15;;;22.60;;
31990;SDS011;18508;49.386;8.370;2023-02-15T12:45:23;66.80;;;25.35;;
31990;SDS011;18508;49.386;8.370;2023-02-15T12:48:09;66.35;;;25.30;;
31990;SDS011;18508;49.386;8.370;2023-02-15T12:50:42;61.50;;;24.48;;
31990;SDS011;18508;49.386;8.370;2023-02-15T12:53:14;66.85;;;26.48;;
31990;SDS011;18508;49.386;8.370;2023-02-15T12:55:54;69.05;;;25.98;;
31990;SDS011;18508;49.386;8.370;2023-02-15T12:58:24;56.42;;;23.67;;
31990;SDS011;18508;49.386;8.370;2023-02-15T13:01:08;61.15;;;25.25;;
31990;SDS011;18508;49.386;8.370;2023-02-15T13:03:49;63.35;;;24.17;;
31990;SDS011;18508;49.386;8.370;2023-02-15T13:06:36;67.65;;;25.33;;
31990;SDS011;18508;49.386;8.370;2023-02-15T13:09:16;62.25;;;24.75;;
31990;SDS011;18508;49.386;8.370;2023-02-15T13:11:48;67.57;;;26.25;;
31990;SDS011;18508;49.386;8.370;2023-02-15T13:14:17;67.40;;;25.95;;
31990;SDS011;18508;49.386;8.370;2023-02-15T13:16:50;66.50;;;25.80;;
31990;SDS011;18508;49.386;8.370;2023-02-15T13:19:23;65.15;;;24.55;;
31990;SDS011;18508;49.386;8.370;2023-02-15T13:21:59;73.95;;;27.00;;
31990;SDS011;18508;49.386;8.370;2023-02-15T13:24:33;67.00;;;26.33;;
31990;SDS011;18508;49.386;8.370;2023-02-15T13:27:07;67.72;;;27.00;;
31990;SDS011;18508;49.386;8.370;2023-02-15T13:29:42;67.35;;;25.45;;
31990;SDS011;18508;49.386;8.370;2023-02-15T13:32:20;61.22;;;25.33;;
31990;SDS011;18508;49.386;8.370;2023-02-15T13:34:56;64.57;;;24.48;;
31990;SDS011;18508;49.386;8.370;2023-02-15T13:37:34;61.63;;;26.02;;
31990;SDS011;18508;49.386;8.370;2023-02-15T13:40:18;62.72;;;25.85;;
31990;SDS011;18508;49.386;8.370;2023-02-15T13:42:56;62.42;;;25.58;;
31990;SDS011;18508;49.386;8.370;2023-02-15T13:45:36;65.13;;;25.90;;
31990;SDS011;18508;49.386;8.370;2023-02-15T13:48:13;68.25;;;26.58;;
31990;SDS011;18508;49.386;8.370;2023-02-15T13:50:55;64.88;;;25.65;;
31990;SDS011;18508;49.386;8.370;2023-02-15T13:53:42;69.55;;;28.42;;
31990;SDS011;18508;49.386;8.370;2023-02-15T13:56:31;61.33;;;25.73;;
31990;SDS011;18508;49.386;8.370;2023-02-15T13:59:22;64.93;;;26.30;;
31990;SDS011;18508;49.386;8.370;2023-02-15T14:02:07;61.42;;;25.75;;
31990;SDS011;18508;49.386;8.370;2023-02-15T14:05:05;61.33;;;25.35;;
31990;SDS011;18508;49.386;8.370;2023-02-15T14:07:49;67.05;;;26.30;;
31990;SDS011;18508;49.386;8.370;2023-02-15T14:10:26;63.22;;;25.38;;
31990;SDS011;18508;49.386;8.370;2023-02-15T14:13:11;58.38;;;25.73;;
31990;SDS011;18508;49.386;8.370;2023-02-15T14:16:09;62.80;;;26.77;;
31990;SDS011;18508;49.386;8.370;2023-02-15T14:18:46;67.80;;;26.88;;
31990;SDS011;18508;49.386;8.370;2023-02-15T14:21:19;61.53;;;25.13;;
31990;SDS011;18508;49.386;8.370;2023-02-15T14:23:57;65.07;;;26.23;;
31990;SDS011;18508;49.386;8.370;2023-02-15T14:29:14;63.40;;;25.30;;
31990;SDS011;18508;49.386;8.370;2023-02-15T14:31:54;63.67;;;25.70;;
31990;SDS011;18508;49.386;8.370;2023-02-15T14:34:27;63.42;;;25.65;;
31990;SDS011;18508;49.386;8.370;2023-02-15T14:37:03;62.03;;;25.98;;
31990;SDS011;18508;49.386;8.370;2023-02-15T14:39:36;66.00;;;27.75;;
31990;SDS011;18508;49.386;8.370;2023-02-15T14:42:34;59.80;;;25.90;;
31990;SDS011;18508;49.386;8.370;2023-02-15T14:45:14;63.45;;;25.98;;
31990;SDS011;18508;49.386;8.370;2023-02-15T14:47:54;66.57;;;26.63;;
31990;SDS011;18508;49.386;8.370;2023-02-15T14:50:37;64.20;;;26.42;;
31990;SDS011;18508;49.386;8.370;2023-02-15T14:53:38;60.60;;;24.92;;
31990;SDS011;18508;49.386;8.370;2023-02-15T14:56:21;67.35;;;27.65;;
31990;SDS011;18508;49.386;8.370;2023-02-15T14:59:07;60.25;;;25.77;;
31990;SDS011;18508;49.386;8.370;2023-02-15T15:01:52;68.50;;;26.17;;
31990;SDS011;18508;49.386;8.370;2023-02-15T15:04:31;71.20;;;26.30;;
31990;SDS011;18508;49.386;8.370;2023-02-15T15:07:03;63.63;;;27.30;;
31990;SDS011;18508;49.386;8.370;2023-02-15T15:09:42;70.05;;;26.80;;
31990;SDS011;18508;49.386;8.370;2023-02-15T15:12:15;61.75;;;25.30;;
31990;SDS011;18508;49.386;8.370;2023-02-15T15:15:07;67.07;;;28.60;;
31990;SDS011;18508;49.386;8.370;2023-02-15T15:17:52;70.30;;;26.83;;
31990;SDS011;18508;49.386;8.370;2023-02-15T15:20:41;66.15;;;27.50;;
31990;SDS011;18508;49.386;8.370;2023-02-15T15:29:07;63.17;;;26.17;;
31990;SDS011;18508;49.386;8.370;2023-02-15T15:31:41;62.20;;;26.00;;
31990;SDS011;18508;49.386;8.370;2023-02-15T15:37:37;64.03;;;25.20;;
31990;SDS011;18508;49.386;8.370;2023-02-15T15:43:49;71.32;;;26.33;;